sensor_id;sensor_type;location;lat;lon;timestamp;temperature;humidity
52643;DHT22;38531;53.296;6.614;2022-11-15T00:01:47;7.70;99.90
52643;DHT22;38531;53.296;6.614;2022-11-15T00:04:13;8.30;99.90
52643;DHT22;38531;53.296;6.614;2022-11-15T00:06:39;7.80;99.90
52643;DHT22;38531;53.296;6.614;2022-11-15T00:09:05;7.80;99.90
52643;DHT22;38531;53.296;6.614;2022-11-15T00:11:30;7.60;99.90
52643;DHT22;38531;53.296;6.614;2022-11-15T00:13:57;8.40;99.90
52643;DHT22;38531;53.296;6.614;2022-11-15T00:16:23;7.90;99.90
52643;DHT22;38531;53.296;6.614;2022-11-15T00:18:49;8.40;99.90
52643;DHT22;38531;53.296;6.614;2022-11-15T00:21:16;8.10;99.90
52643;DHT22;38531;53.296;6.614;2022-11-15T00:23:42;8.10;99.90
52643;DHT22;38531;53.296;6.614;2022-11-15T00:26:13;8.40;99.90
52643;DHT22;38531;53.296;6.614;2022-11-15T00:28:40;7.80;99.90
52643;DHT22;38531;53.296;6.614;2022-11-15T00:31:09;7.40;99.90
52643;DHT22;38531;53.296;6.614;2022-11-15T00:33:36;8.00;99.90
52643;DHT22;38531;53.296;6.614;2022-11-15T00:36:07;7.50;99.90
52643;DHT22;38531;53.296;6.614;2022-11-15T00:38:35;7.10;99.90
52643;DHT22;38531;53.296;6.614;2022-11-15T00:41:03;8.10;99.90
52643;DHT22;38531;53.296;6.614;2022-11-15T00:43:29;7.90;99.90
52643;DHT22;38531;53.296;6.614;2022-11-15T00:45:55;7.70;99.90
52643;DHT22;38531;53.296;6.614;2022-11-15T00:48:21;7.30;99.90
52643;DHT22;38531;53.296;6.614;2022-11-15T00:50:47;6.70;99.90
52643;DHT22;38531;53.296;6.614;2022-11-15T00:53:13;6.40;99.90
52643;DHT22;38531;53.296;6.614;2022-11-15T00:55:39;6.60;99.90
52643;DHT22;38531;53.296;6.614;2022-11-15T00:58:04;6.60;99.90
52643;DHT22;38531;53.296;6.614;2022-11-15T01:00:30;7.30;99.90
52643;DHT22;38531;53.296;6.614;2022-11-15T01:02:56;7.30;99.90
52643;DHT22;38531;53.296;6.614;2022-11-15T01:05:22;7.10;99.90
52643;DHT22;38531;53.296;6.614;2022-11-15T01:07:54;6.20;99.90
52643;DHT22;38531;53.296;6.614;2022-11-15T01:10:21;6.70;99.90
52643;DHT22;38531;53.296;6.614;2022-11-15T01:12:48;6.70;99.90
52643;DHT22;38531;53.296;6.614;2022-11-15T01:15:13;6.70;99.90
52643;DHT22;38531;53.296;6.614;2022-11-15T01:17:39;6.70;99.90
52643;DHT22;38531;53.296;6.614;2022-11-15T01:20:05;7.20;99.90
52643;DHT22;38531;53.296;6.614;2022-11-15T01:22:31;6.70;99.90
52643;DHT22;38531;53.296;6.614;2022-11-15T01:24:56;7.00;99.90
52643;DHT22;38531;53.296;6.614;2022-11-15T01:27:22;6.60;99.90
52643;DHT22;38531;53.296;6.614;2022-11-15T01:29:48;7.10;99.90
52643;DHT22;38531;53.296;6.614;2022-11-15T01:32:14;6.90;99.90
52643;DHT22;38531;53.296;6.614;2022-11-15T01:34:39;7.10;99.90
52643;DHT22;38531;53.296;6.614;2022-11-15T01:37:05;6.50;99.90
52643;DHT22;38531;53.296;6.614;2022-11-15T01:39:31;6.40;99.90
52643;DHT22;38531;53.296;6.614;2022-11-15T01:41:56;7.40;99.90
52643;DHT22;38531;53.296;6.614;2022-11-15T01:47:02;6.40;99.90
52643;DHT22;38531;53.296;6.614;2022-11-15T01:49:31;6.60;99.90
52643;DHT22;38531;53.296;6.614;2022-11-15T01:51:58;7.60;99.90
52643;DHT22;38531;53.296;6.614;2022-11-15T01:54:26;5.60;99.90
52643;DHT22;38531;53.296;6.614;2022-11-15T01:56:55;7.50;99.90
52643;DHT22;38531;53.296;6.614;2022-11-15T01:59:24;6.60;99.90
52643;DHT22;38531;53.296;6.614;2022-11-15T02:01:51;6.50;99.90
52643;DHT22;38531;53.296;6.614;2022-11-15T02:04:24;7.30;99.90
52643;DHT22;38531;53.296;6.614;2022-11-15T02:06:51;6.60;99.90
52643;DHT22;38531;53.296;6.614;2022-11-15T02:09:19;6.60;99.90
52643;DHT22;38531;53.296;6.614;2022-11-15T02:11:46;7.60;99.90
52643;DHT22;38531;53.296;6.614;2022-11-15T02:14:13;6.70;99.90
52643;DHT22;38531;53.296;6.614;2022-11-15T02:34:08;6.40;99.90
52643;DHT22;38531;53.296;6.614;2022-11-15T02:39:53;6.90;99.90
52643;DHT22;38531;53.296;6.614;2022-11-15T02:42:28;7.00;99.90
52643;DHT22;38531;53.296;6.614;2022-11-15T02:45:21;7.60;99.90
52643;DHT22;38531;53.296;6.614;2022-11-15T02:47:50;7.00;99.90
52643;DHT22;38531;53.296;6.614;2022-11-15T02:50:20;6.40;99.90
52643;DHT22;38531;53.296;6.614;2022-11-15T02:52:48;7.00;99.90
52643;DHT22;38531;53.296;6.614;2022-11-15T02:55:35;7.00;99.90
52643;DHT22;38531;53.296;6.614;2022-11-15T02:58:23;7.00;99.90
52643;DHT22;38531;53.296;6.614;2022-11-15T03:04:28;7.00;99.90
52643;DHT22;38531;53.296;6.614;2022-11-15T03:07:14;7.10;99.90
52643;DHT22;38531;53.296;6.614;2022-11-15T03:09:42;7.00;99.90
52643;DHT22;38531;53.296;6.614;2022-11-15T03:12:21;7.30;99.90
52643;DHT22;38531;53.296;6.614;2022-11-15T03:15:10;7.90;99.90
52643;DHT22;38531;53.296;6.614;2022-11-15T03:17:46;7.10;99.90
52643;DHT22;38531;53.296;6.614;2022-11-15T03:20:15;6.90;99.90
52643;DHT22;38531;53.296;6.614;2022-11-15T03:22:44;7.40;99.90
52643;DHT22;38531;53.296;6.614;2022-11-15T03:25:19;7.20;99.90
52643;DHT22;38531;53.296;6.614;2022-11-15T03:27:49;7.10;99.90
52643;DHT22;38531;53.296;6.614;2022-11-15T03:30:16;8.10;99.90
52643;DHT22;38531;53.296;6.614;2022-11-15T03:32:46;7.10;99.90
52643;DHT22;38531;53.296;6.614;2022-11-15T03:35:17;7.40;99.90
52643;DHT22;38531;53.296;6.614;2022-11-15T03:38:03;7.10;99.90
52643;DHT22;38531;53.296;6.614;2022-11-15T03:40:42;7.20;99.90
52643;DHT22;38531;53.296;6.614;2022-11-15T03:46:08;7.20;99.90
52643;DHT22;38531;53.296;6.614;2022-11-15T03:48:49;8.00;99.90
52643;DHT22;38531;53.296;6.614;2022-11-15T03:51:16;8.10;99.90
52643;DHT22;38531;53.296;6.614;2022-11-15T03:53:42;8.00;99.90
52643;DHT22;38531;53.296;6.614;2022-11-15T03:56:08;7.60;99.90
52643;DHT22;38531;53.296;6.614;2022-11-15T03:58:33;7.60;99.90
52643;DHT22;38531;53.296;6.614;2022-11-15T04:00:59;7.60;99.90
52643;DHT22;38531;53.296;6.614;2022-11-15T04:03:25;7.30;99.90
52643;DHT22;38531;53.296;6.614;2022-11-15T04:05:51;6.70;99.90
52643;DHT22;38531;53.296;6.614;2022-11-15T04:08:17;7.30;99.90
52643;DHT22;38531;53.296;6.614;2022-11-15T04:10:42;6.60;99.90
52643;DHT22;38531;53.296;6.614;2022-11-15T04:13:08;6.30;99.90
52643;DHT22;38531;53.296;6.614;2022-11-15T04:15:34;7.90;99.90
52643;DHT22;38531;53.296;6.614;2022-11-15T04:18:00;7.10;99.90
52643;DHT22;38531;53.296;6.614;2022-11-15T04:20:30;7.40;99.90
52643;DHT22;38531;53.296;6.614;2022-11-15T04:23:16;7.40;99.90
52643;DHT22;38531;53.296;6.614;2022-11-15T04:26:09;7.70;99.90
52643;DHT22;38531;53.296;6.614;2022-11-15T04:28:35;7.40;99.90
52643;DHT22;38531;53.296;6.614;2022-11-15T04:31:21;8.40;99.90
52643;DHT22;38531;53.296;6.614;2022-11-15T04:33:47;8.10;99.90
52643;DHT22;38531;53.296;6.614;2022-11-15T04:36:12;8.70;99.90
52643;DHT22;38531;53.296;6.614;2022-11-15T04:38:56;7.70;99.90
52643;DHT22;38531;53.296;6.614;2022-11-15T04:41:22;7.60;99.90
52643;DHT22;38531;53.296;6.614;2022-11-15T04:43:48;8.20;99.90
52643;DHT22;38531;53.296;6.614;2022-11-15T04:46:13;7.60;99.90
52643;DHT22;38531;53.296;6.614;2022-11-15T04:48:39;8.30;99.90
52643;DHT22;38531;53.296;6.614;2022-11-15T04:51:05;7.60;99.90
52643;DHT22;38531;53.296;6.614;2022-11-15T04:53:30;7.60;99.90
52643;DHT22;38531;53.296;6.614;2022-11-15T04:55:56;7.60;99.90
52643;DHT22;38531;53.296;6.614;2022-11-15T04:58:22;7.80;99.90
52643;DHT22;38531;53.296;6.614;2022-11-15T05:00:50;8.00;99.90
52643;DHT22;38531;53.296;6.614;2022-11-15T05:03:15;8.70;99.90
52643;DHT22;38531;53.296;6.614;2022-11-15T05:05:59;8.70;99.90
52643;DHT22;38531;53.296;6.614;2022-11-15T05:08:25;8.10;99.90
52643;DHT22;38531;53.296;6.614;2022-11-15T05:10:51;7.70;99.90
52643;DHT22;38531;53.296;6.614;2022-11-15T05:13:17;7.70;99.90
52643;DHT22;38531;53.296;6.614;2022-11-15T05:15:43;8.10;99.90
52643;DHT22;38531;53.296;6.614;2022-11-15T05:18:09;8.70;99.90
52643;DHT22;38531;53.296;6.614;2022-11-15T05:20:34;8.40;99.90
52643;DHT22;38531;53.296;6.614;2022-11-15T05:23:00;7.80;99.90
52643;DHT22;38531;53.296;6.614;2022-11-15T05:25:26;8.00;99.90
52643;DHT22;38531;53.296;6.614;2022-11-15T05:27:52;8.80;99.90
52643;DHT22;38531;53.296;6.614;2022-11-15T05:30:17;8.40;99.90
52643;DHT22;38531;53.296;6.614;2022-11-15T05:32:44;7.90;99.90
52643;DHT22;38531;53.296;6.614;2022-11-15T05:35:13;8.00;99.90
52643;DHT22;38531;53.296;6.614;2022-11-15T05:37:40;9.00;99.90
52643;DHT22;38531;53.296;6.614;2022-11-15T05:40:07;7.90;99.90
52643;DHT22;38531;53.296;6.614;2022-11-15T05:42:32;7.90;99.90
52643;DHT22;38531;53.296;6.614;2022-11-15T05:44:59;8.90;99.90
52643;DHT22;38531;53.296;6.614;2022-11-15T05:47:27;8.30;99.90
52643;DHT22;38531;53.296;6.614;2022-11-15T05:49:54;8.50;99.90
52643;DHT22;38531;53.296;6.614;2022-11-15T05:52:22;8.10;99.90
52643;DHT22;38531;53.296;6.614;2022-11-15T05:54:50;8.60;99.90
52643;DHT22;38531;53.296;6.614;2022-11-15T05:57:17;9.10;99.90
52643;DHT22;38531;53.296;6.614;2022-11-15T05:59:43;8.10;99.90
52643;DHT22;38531;53.296;6.614;2022-11-15T06:02:10;8.00;99.90
52643;DHT22;38531;53.296;6.614;2022-11-15T06:04:36;8.10;99.90
52643;DHT22;38531;53.296;6.614;2022-11-15T06:07:02;8.10;99.90
52643;DHT22;38531;53.296;6.614;2022-11-15T06:09:27;8.90;99.90
52643;DHT22;38531;53.296;6.614;2022-11-15T06:11:53;9.20;99.90
52643;DHT22;38531;53.296;6.614;2022-11-15T06:14:19;9.40;99.90
52643;DHT22;38531;53.296;6.614;2022-11-15T06:16:44;8.40;99.90
52643;DHT22;38531;53.296;6.614;2022-11-15T06:19:10;9.10;99.90
52643;DHT22;38531;53.296;6.614;2022-11-15T06:21:36;8.80;99.90
52643;DHT22;38531;53.296;6.614;2022-11-15T06:24:02;9.10;99.90
52643;DHT22;38531;53.296;6.614;2022-11-15T06:26:27;8.20;99.90
52643;DHT22;38531;53.296;6.614;2022-11-15T06:28:53;8.90;99.90
52643;DHT22;38531;53.296;6.614;2022-11-15T06:31:19;9.30;99.90
52643;DHT22;38531;53.296;6.614;2022-11-15T06:33:44;9.00;99.90
52643;DHT22;38531;53.296;6.614;2022-11-15T06:36:12;8.20;99.90
52643;DHT22;38531;53.296;6.614;2022-11-15T06:38:39;8.30;99.90
52643;DHT22;38531;53.296;6.614;2022-11-15T06:41:08;8.40;99.90
52643;DHT22;38531;53.296;6.614;2022-11-15T06:43:35;8.30;99.90
52643;DHT22;38531;53.296;6.614;2022-11-15T06:46:01;8.80;99.90
52643;DHT22;38531;53.296;6.614;2022-11-15T06:48:29;9.40;99.90
52643;DHT22;38531;53.296;6.614;2022-11-15T06:50:57;8.40;99.90
52643;DHT22;38531;53.296;6.614;2022-11-15T06:53:24;9.30;99.90
52643;DHT22;38531;53.296;6.614;2022-11-15T06:55:50;8.40;99.90
52643;DHT22;38531;53.296;6.614;2022-11-15T06:58:16;8.50;99.90
52643;DHT22;38531;53.296;6.614;2022-11-15T07:00:42;8.50;99.90
52643;DHT22;38531;53.296;6.614;2022-11-15T07:03:08;8.50;99.90
52643;DHT22;38531;53.296;6.614;2022-11-15T07:05:35;8.50;99.90
52643;DHT22;38531;53.296;6.614;2022-11-15T07:08:01;8.60;99.90
52643;DHT22;38531;53.296;6.614;2022-11-15T07:10:28;8.60;99.90
52643;DHT22;38531;53.296;6.614;2022-11-15T07:12:55;9.00;99.90
52643;DHT22;38531;53.296;6.614;2022-11-15T07:15:23;8.60;99.90
52643;DHT22;38531;53.296;6.614;2022-11-15T07:17:49;8.70;99.90
52643;DHT22;38531;53.296;6.614;2022-11-15T07:20:18;9.70;99.90
52643;DHT22;38531;53.296;6.614;2022-11-15T07:22:44;8.70;99.90
52643;DHT22;38531;53.296;6.614;2022-11-15T07:25:12;8.70;99.90
52643;DHT22;38531;53.296;6.614;2022-11-15T07:27:38;8.80;99.90
52643;DHT22;38531;53.296;6.614;2022-11-15T07:30:05;8.80;99.90
52643;DHT22;38531;53.296;6.614;2022-11-15T07:32:31;8.90;99.90
52643;DHT22;38531;53.296;6.614;2022-11-15T07:34:56;8.90;99.90
52643;DHT22;38531;53.296;6.614;2022-11-15T07:37:22;9.00;99.90
52643;DHT22;38531;53.296;6.614;2022-11-15T07:39:48;9.00;99.90
52643;DHT22;38531;53.296;6.614;2022-11-15T07:42:13;9.10;99.90
52643;DHT22;38531;53.296;6.614;2022-11-15T07:44:58;10.00;99.90
52643;DHT22;38531;53.296;6.614;2022-11-15T07:47:23;9.10;99.90
52643;DHT22;38531;53.296;6.614;2022-11-15T07:49:49;9.20;99.90
52643;DHT22;38531;53.296;6.614;2022-11-15T07:52:15;9.60;99.90
52643;DHT22;38531;53.296;6.614;2022-11-15T07:54:40;9.40;99.90
52643;DHT22;38531;53.296;6.614;2022-11-15T07:57:06;9.40;99.90
52643;DHT22;38531;53.296;6.614;2022-11-15T07:59:32;9.60;99.90
52643;DHT22;38531;53.296;6.614;2022-11-15T08:02:02;9.80;99.90
52643;DHT22;38531;53.296;6.614;2022-11-15T08:04:30;9.60;99.90
52643;DHT22;38531;53.296;6.614;2022-11-15T08:06:56;9.70;99.90
52643;DHT22;38531;53.296;6.614;2022-11-15T08:09:22;9.90;99.90
52643;DHT22;38531;53.296;6.614;2022-11-15T08:11:48;9.70;99.90
52643;DHT22;38531;53.296;6.614;2022-11-15T08:14:14;9.70;99.90
52643;DHT22;38531;53.296;6.614;2022-11-15T08:16:39;10.90;99.90
52643;DHT22;38531;53.296;6.614;2022-11-15T08:19:05;10.40;99.90
52643;DHT22;38531;53.296;6.614;2022-11-15T08:21:31;9.80;99.90
52643;DHT22;38531;53.296;6.614;2022-11-15T08:23:56;10.60;99.90
52643;DHT22;38531;53.296;6.614;2022-11-15T08:26:22;10.10;99.90
52643;DHT22;38531;53.296;6.614;2022-11-15T08:28:55;10.00;99.90
52643;DHT22;38531;53.296;6.614;2022-11-15T08:33:57;10.00;99.90
52643;DHT22;38531;53.296;6.614;2022-11-15T08:36:32;10.10;99.90
52643;DHT22;38531;53.296;6.614;2022-11-15T08:39:00;10.10;99.90
52643;DHT22;38531;53.296;6.614;2022-11-15T08:41:27;10.60;99.90
52643;DHT22;38531;53.296;6.614;2022-11-15T08:43:53;10.20;99.90
52643;DHT22;38531;53.296;6.614;2022-11-15T08:46:19;10.20;99.90
52643;DHT22;38531;53.296;6.614;2022-11-15T08:48:45;10.30;99.90
52643;DHT22;38531;53.296;6.614;2022-11-15T08:51:10;10.30;99.90
52643;DHT22;38531;53.296;6.614;2022-11-15T08:53:36;10.40;99.90
52643;DHT22;38531;53.296;6.614;2022-11-15T08:56:02;10.60;99.90
52643;DHT22;38531;53.296;6.614;2022-11-15T08:58:28;10.40;99.90
52643;DHT22;38531;53.296;6.614;2022-11-15T09:00:54;10.50;99.90
52643;DHT22;38531;53.296;6.614;2022-11-15T09:03:20;10.50;99.90
52643;DHT22;38531;53.296;6.614;2022-11-15T09:05:53;10.60;99.90
52643;DHT22;38531;53.296;6.614;2022-11-15T09:08:22;10.50;99.90
52643;DHT22;38531;53.296;6.614;2022-11-15T09:10:48;10.60;99.90
52643;DHT22;38531;53.296;6.614;2022-11-15T09:13:14;10.60;99.90
52643;DHT22;38531;53.296;6.614;2022-11-15T09:15:40;10.70;99.90
52643;DHT22;38531;53.296;6.614;2022-11-15T09:18:05;10.80;99.90
52643;DHT22;38531;53.296;6.614;2022-11-15T09:20:31;10.90;99.90
52643;DHT22;38531;53.296;6.614;2022-11-15T09:23:01;11.40;99.90
52643;DHT22;38531;53.296;6.614;2022-11-15T09:25:27;11.00;99.90
52643;DHT22;38531;53.296;6.614;2022-11-15T09:27:53;11.10;99.90
52643;DHT22;38531;53.296;6.614;2022-11-15T09:30:19;11.10;99.90
52643;DHT22;38531;53.296;6.614;2022-11-15T09:32:45;11.10;99.90
52643;DHT22;38531;53.296;6.614;2022-11-15T09:35:14;11.10;99.90
52643;DHT22;38531;53.296;6.614;2022-11-15T09:37:45;11.20;99.90
52643;DHT22;38531;53.296;6.614;2022-11-15T09:40:15;12.10;99.90
52643;DHT22;38531;53.296;6.614;2022-11-15T10:11:40;11.30;99.90
52643;DHT22;38531;53.296;6.614;2022-11-15T10:14:40;11.90;99.90
52643;DHT22;38531;53.296;6.614;2022-11-15T11:38:22;12.10;99.90
52643;DHT22;38531;53.296;6.614;2022-11-15T11:49:15;12.20;99.90
52643;DHT22;38531;53.296;6.614;2022-11-15T11:54:53;12.30;99.90
52643;DHT22;38531;53.296;6.614;2022-11-15T12:00:51;12.50;99.90
52643;DHT22;38531;53.296;6.614;2022-11-15T12:10:03;12.90;99.90
52643;DHT22;38531;53.296;6.614;2022-11-15T12:12:46;13.00;99.90
52643;DHT22;38531;53.296;6.614;2022-11-15T12:15:25;13.00;99.90
52643;DHT22;38531;53.296;6.614;2022-11-15T12:17:52;13.00;99.90
52643;DHT22;38531;53.296;6.614;2022-11-15T12:20:35;13.00;99.90
52643;DHT22;38531;53.296;6.614;2022-11-15T12:26:10;12.90;99.90
52643;DHT22;38531;53.296;6.614;2022-11-15T12:29:02;12.90;99.90
52643;DHT22;38531;53.296;6.614;2022-11-15T12:36:49;12.60;99.90
52643;DHT22;38531;53.296;6.614;2022-11-15T12:39:16;12.70;99.90
52643;DHT22;38531;53.296;6.614;2022-11-15T12:41:44;12.90;99.90
52643;DHT22;38531;53.296;6.614;2022-11-15T12:44:11;12.80;99.90
52643;DHT22;38531;53.296;6.614;2022-11-15T13:02:35;12.40;99.90
52643;DHT22;38531;53.296;6.614;2022-11-15T13:17:49;12.40;99.90
52643;DHT22;38531;53.296;6.614;2022-11-15T13:22:48;12.40;99.90
52643;DHT22;38531;53.296;6.614;2022-11-15T13:27:52;12.70;99.90
52643;DHT22;38531;53.296;6.614;2022-11-15T13:30:22;13.40;99.90
52643;DHT22;38531;53.296;6.614;2022-11-15T13:32:50;12.80;99.90
52643;DHT22;38531;53.296;6.614;2022-11-15T13:35:25;13.50;99.90
52643;DHT22;38531;53.296;6.614;2022-11-15T13:37:52;12.80;99.90
52643;DHT22;38531;53.296;6.614;2022-11-15T13:40:26;13.00;99.90
52643;DHT22;38531;53.296;6.614;2022-11-15T13:42:53;12.70;99.90
52643;DHT22;38531;53.296;6.614;2022-11-15T13:45:19;13.00;99.90
52643;DHT22;38531;53.296;6.614;2022-11-15T13:47:51;12.90;99.90
52643;DHT22;38531;53.296;6.614;2022-11-15T13:50:18;12.50;99.90
52643;DHT22;38531;53.296;6.614;2022-11-15T13:52:47;12.50;99.90
52643;DHT22;38531;53.296;6.614;2022-11-15T13:55:19;12.40;99.90
52643;DHT22;38531;53.296;6.614;2022-11-15T13:57:53;12.80;99.90
52643;DHT22;38531;53.296;6.614;2022-11-15T14:02:55;12.20;99.90
52643;DHT22;38531;53.296;6.614;2022-11-15T14:05:24;12.20;99.90
52643;DHT22;38531;53.296;6.614;2022-11-15T14:07:55;12.10;99.90
52643;DHT22;38531;53.296;6.614;2022-11-15T14:10:35;12.00;99.90
52643;DHT22;38531;53.296;6.614;2022-11-15T14:13:02;12.00;99.90
52643;DHT22;38531;53.296;6.614;2022-11-15T14:15:34;11.90;99.90
52643;DHT22;38531;53.296;6.614;2022-11-15T14:18:01;11.90;99.90
52643;DHT22;38531;53.296;6.614;2022-11-15T14:20:36;11.80;99.90
52643;DHT22;38531;53.296;6.614;2022-11-15T14:23:17;11.80;99.90
52643;DHT22;38531;53.296;6.614;2022-11-15T14:25:53;11.70;99.90
52643;DHT22;38531;53.296;6.614;2022-11-15T14:28:31;11.70;99.90
52643;DHT22;38531;53.296;6.614;2022-11-15T14:30:59;12.10;99.90
52643;DHT22;38531;53.296;6.614;2022-11-15T14:33:36;11.80;99.90
52643;DHT22;38531;53.296;6.614;2022-11-15T14:36:14;11.50;99.90
52643;DHT22;38531;53.296;6.614;2022-11-15T14:38:58;11.60;99.90
52643;DHT22;38531;53.296;6.614;2022-11-15T14:41:42;11.40;99.90
52643;DHT22;38531;53.296;6.614;2022-11-15T14:44:28;11.20;99.90
52643;DHT22;38531;53.296;6.614;2022-11-15T14:47:06;11.50;99.90
52643;DHT22;38531;53.296;6.614;2022-11-15T14:49:32;11.20;99.90
52643;DHT22;38531;53.296;6.614;2022-11-15T14:52:16;11.20;99.90
52643;DHT22;38531;53.296;6.614;2022-11-15T14:55:10;11.20;99.90
52643;DHT22;38531;53.296;6.614;2022-11-15T14:57:40;11.10;99.90
52643;DHT22;38531;53.296;6.614;2022-11-15T15:00:14;10.90;99.90
52643;DHT22;38531;53.296;6.614;2022-11-15T15:02:58;11.00;99.90
52643;DHT22;38531;53.296;6.614;2022-11-15T15:05:39;10.80;99.90
52643;DHT22;38531;53.296;6.614;2022-11-15T15:08:17;10.90;99.90
52643;DHT22;38531;53.296;6.614;2022-11-15T15:10:44;10.90;99.90
52643;DHT22;38531;53.296;6.614;2022-11-15T15:13:31;11.50;99.90
52643;DHT22;38531;53.296;6.614;2022-11-15T15:15:56;10.70;99.90
52643;DHT22;38531;53.296;6.614;2022-11-15T15:18:24;10.60;99.90
52643;DHT22;38531;53.296;6.614;2022-11-15T15:21:00;11.60;99.90
52643;DHT22;38531;53.296;6.614;2022-11-15T15:23:33;10.50;99.90
52643;DHT22;38531;53.296;6.614;2022-11-15T15:26:00;10.50;99.90
52643;DHT22;38531;53.296;6.614;2022-11-15T15:28:35;11.10;99.90
52643;DHT22;38531;53.296;6.614;2022-11-15T15:31:04;10.40;99.90
52643;DHT22;38531;53.296;6.614;2022-11-15T15:33:31;10.30;99.90
52643;DHT22;38531;53.296;6.614;2022-11-15T15:35:57;10.30;99.90
52643;DHT22;38531;53.296;6.614;2022-11-15T15:38:23;10.20;99.90
52643;DHT22;38531;53.296;6.614;2022-11-15T15:40:48;10.10;99.90
52643;DHT22;38531;53.296;6.614;2022-11-15T15:43:14;10.10;99.90
52643;DHT22;38531;53.296;6.614;2022-11-15T15:45:41;10.30;99.90
52643;DHT22;38531;53.296;6.614;2022-11-15T15:48:15;10.40;99.90
52643;DHT22;38531;53.296;6.614;2022-11-15T15:50:41;10.50;99.90
52643;DHT22;38531;53.296;6.614;2022-11-15T15:53:11;9.80;99.90
52643;DHT22;38531;53.296;6.614;2022-11-15T15:55:37;9.70;99.90
52643;DHT22;38531;53.296;6.614;2022-11-15T15:58:04;10.40;99.90
52643;DHT22;38531;53.296;6.614;2022-11-15T16:00:30;10.40;99.90
52643;DHT22;38531;53.296;6.614;2022-11-15T16:02:58;10.00;99.90
52643;DHT22;38531;53.296;6.614;2022-11-15T16:05:24;9.60;99.90
52643;DHT22;38531;53.296;6.614;2022-11-15T16:07:50;10.20;99.90
52643;DHT22;38531;53.296;6.614;2022-11-15T16:10:28;9.60;99.90
52643;DHT22;38531;53.296;6.614;2022-11-15T16:12:55;9.60;99.90
52643;DHT22;38531;53.296;6.614;2022-11-15T16:15:22;9.80;99.90
52643;DHT22;38531;53.296;6.614;2022-11-15T16:17:51;10.10;99.90
52643;DHT22;38531;53.296;6.614;2022-11-15T16:23:02;9.50;99.90
52643;DHT22;38531;53.296;6.614;2022-11-15T16:25:28;9.50;99.90
52643;DHT22;38531;53.296;6.614;2022-11-15T16:27:55;10.40;99.90
52643;DHT22;38531;53.296;6.614;2022-11-15T16:30:22;9.50;99.90
52643;DHT22;38531;53.296;6.614;2022-11-15T16:32:48;9.50;99.90
52643;DHT22;38531;53.296;6.614;2022-11-15T16:35:15;10.50;99.90
52643;DHT22;38531;53.296;6.614;2022-11-15T16:37:41;10.40;99.90
52643;DHT22;38531;53.296;6.614;2022-11-15T16:40:32;9.90;99.90
52643;DHT22;38531;53.296;6.614;2022-11-15T16:42:59;9.30;99.90
52643;DHT22;38531;53.296;6.614;2022-11-15T16:45:27;9.60;99.90
52643;DHT22;38531;53.296;6.614;2022-11-15T16:47:55;9.30;99.90
52643;DHT22;38531;53.296;6.614;2022-11-15T16:50:24;9.80;99.90
52643;DHT22;38531;53.296;6.614;2022-11-15T16:52:57;10.20;99.90
52643;DHT22;38531;53.296;6.614;2022-11-15T16:55:25;9.30;99.90
52643;DHT22;38531;53.296;6.614;2022-11-15T16:57:54;9.90;99.90
52643;DHT22;38531;53.296;6.614;2022-11-15T17:00:23;9.30;99.90
52643;DHT22;38531;53.296;6.614;2022-11-15T17:02:50;9.40;99.90
52643;DHT22;38531;53.296;6.614;2022-11-15T17:05:18;9.30;99.90
52643;DHT22;38531;53.296;6.614;2022-11-15T17:07:46;9.40;99.90
52643;DHT22;38531;53.296;6.614;2022-11-15T17:10:17;10.00;99.90
52643;DHT22;38531;53.296;6.614;2022-11-15T17:12:43;10.50;99.90
52643;DHT22;38531;53.296;6.614;2022-11-15T17:15:11;9.70;99.90
52643;DHT22;38531;53.296;6.614;2022-11-15T17:17:37;9.60;99.90
52643;DHT22;38531;53.296;6.614;2022-11-15T17:20:03;9.90;99.90
52643;DHT22;38531;53.296;6.614;2022-11-15T17:22:35;9.60;99.90
52643;DHT22;38531;53.296;6.614;2022-11-15T17:25:01;9.70;99.90
52643;DHT22;38531;53.296;6.614;2022-11-15T17:27:29;9.70;99.90
52643;DHT22;38531;53.296;6.614;2022-11-15T17:29:55;9.70;99.90
52643;DHT22;38531;53.296;6.614;2022-11-15T17:32:21;10.40;99.90
52643;DHT22;38531;53.296;6.614;2022-11-15T17:34:46;9.70;99.90
52643;DHT22;38531;53.296;6.614;2022-11-15T17:37:12;10.20;99.90
52643;DHT22;38531;53.296;6.614;2022-11-15T17:39:38;10.50;99.90
52643;DHT22;38531;53.296;6.614;2022-11-15T17:42:03;9.80;99.90
52643;DHT22;38531;53.296;6.614;2022-11-15T17:44:30;9.80;99.90
52643;DHT22;38531;53.296;6.614;2022-11-15T17:46:56;10.60;99.90
52643;DHT22;38531;53.296;6.614;2022-11-15T17:49:21;9.80;99.90
52643;DHT22;38531;53.296;6.614;2022-11-15T17:51:47;9.70;99.90
52643;DHT22;38531;53.296;6.614;2022-11-15T17:54:13;9.10;99.90
52643;DHT22;38531;53.296;6.614;2022-11-15T17:56:39;9.60;99.90
52643;DHT22;38531;53.296;6.614;2022-11-15T17:59:06;9.80;99.90
52643;DHT22;38531;53.296;6.614;2022-11-15T18:01:33;9.60;99.90
52643;DHT22;38531;53.296;6.614;2022-11-15T18:04:00;9.60;99.90
52643;DHT22;38531;53.296;6.614;2022-11-15T18:06:28;10.10;99.90
52643;DHT22;38531;53.296;6.614;2022-11-15T18:08:57;9.60;99.90
52643;DHT22;38531;53.296;6.614;2022-11-15T18:11:32;10.50;99.90
52643;DHT22;38531;53.296;6.614;2022-11-15T18:14:01;9.50;99.90
52643;DHT22;38531;53.296;6.614;2022-11-15T18:16:29;9.50;99.90
52643;DHT22;38531;53.296;6.614;2022-11-15T18:18:56;10.40;99.90
52643;DHT22;38531;53.296;6.614;2022-11-15T18:21:24;9.50;99.90
52643;DHT22;38531;53.296;6.614;2022-11-15T18:23:56;9.50;99.90
52643;DHT22;38531;53.296;6.614;2022-11-15T18:26:23;9.40;99.90
52643;DHT22;38531;53.296;6.614;2022-11-15T18:29:01;9.90;99.90
52643;DHT22;38531;53.296;6.614;2022-11-15T18:31:29;9.40;99.90
52643;DHT22;38531;53.296;6.614;2022-11-15T18:33:59;9.40;99.90
52643;DHT22;38531;53.296;6.614;2022-11-15T18:36:28;9.60;99.90
52643;DHT22;38531;53.296;6.614;2022-11-15T18:38:55;9.30;99.90
52643;DHT22;38531;53.296;6.614;2022-11-15T18:41:21;9.90;99.90
52643;DHT22;38531;53.296;6.614;2022-11-15T18:43:50;9.60;99.90
52643;DHT22;38531;53.296;6.614;2022-11-15T18:46:19;10.20;99.90
52643;DHT22;38531;53.296;6.614;2022-11-15T18:48:46;9.20;99.90
52643;DHT22;38531;53.296;6.614;2022-11-15T18:51:19;9.70;99.90
52643;DHT22;38531;53.296;6.614;2022-11-15T18:53:46;9.10;99.90
52643;DHT22;38531;53.296;6.614;2022-11-15T18:56:14;9.90;99.90
52643;DHT22;38531;53.296;6.614;2022-11-15T18:58:41;9.80;99.90
52643;DHT22;38531;53.296;6.614;2022-11-15T19:01:27;9.10;99.90
52643;DHT22;38531;53.296;6.614;2022-11-15T19:03:55;9.70;99.90
52643;DHT22;38531;53.296;6.614;2022-11-15T19:06:24;10.00;99.90
52643;DHT22;38531;53.296;6.614;2022-11-15T19:08:51;9.00;99.90
52643;DHT22;38531;53.296;6.614;2022-11-15T19:11:21;9.00;99.90
52643;DHT22;38531;53.296;6.614;2022-11-15T19:13:52;9.10;99.90
52643;DHT22;38531;53.296;6.614;2022-11-15T19:16:20;9.00;99.90
52643;DHT22;38531;53.296;6.614;2022-11-15T19:18:45;10.00;99.90
52643;DHT22;38531;53.296;6.614;2022-11-15T19:21:12;9.50;99.90
52643;DHT22;38531;53.296;6.614;2022-11-15T19:23:40;9.10;99.90